Time;durP1;ratioP1;P1;durP2;ratioP2;P2;SDS_P1;SDS_P2;PMS_P1;PMS_P2;Temp;Humidity;BMP_temperature;BMP_pressure;BME280_temperature;BME280_humidity;BME280_pressure;Samples;Min_cycle;Max_cycle;Signal;HPM_P1;HPM_P2
2021/11/21 00:00:49;;;;;;;11.75;7.63;;;;;16.10;101284.00;;;;5038931;28;20192;-81
2021/11/21 00:03:17;;;;;;;10.10;7.00;;;;;16.10;101285.00;;;;5032709;28;20198;-81
2021/11/21 00:05:44;;;;;;;10.68;7.25;;;;;16.10;101283.00;;;;5031546;28;20220;-81
2021/11/21 00:08:13;;;;;;;10.68;7.07;;;;;16.10;101280.00;;;;5030631;28;20656;-81
2021/11/21 00:10:41;;;;;;;13.07;7.68;;;;;16.10;101278.00;;;;5028156;28;20192;-81
2021/11/21 00:13:11;;;;;;;11.57;7.63;;;;;16.10;101280.00;;;;5031754;28;20913;-82
2021/11/21 00:15:41;;;;;;;10.88;7.15;;;;;16.10;101275.00;;;;5041506;28;20242;-81
2021/11/21 00:18:09;;;;;;;19.73;9.32;;;;;16.10;101275.00;;;;5034983;28;20279;-81
2021/11/21 00:20:36;;;;;;;11.32;7.40;;;;;16.10;101267.00;;;;5037958;28;20203;-82
2021/11/21 00:23:04;;;;;;;10.70;7.65;;;;;16.10;101264.00;;;;5044962;28;20211;-82
2021/11/21 00:25:33;;;;;;;13.45;8.52;;;;;16.10;101254.00;;;;5047347;28;20231;-82
2021/11/21 00:28:00;;;;;;;12.27;8.15;;;;;16.10;101257.00;;;;5039513;28;20321;-81
2021/11/21 00:30:29;;;;;;;13.55;7.75;;;;;16.10;101254.00;;;;5045941;28;20198;-82
2021/11/21 00:32:57;;;;;;;10.85;7.97;;;;;16.10;101253.00;;;;5042439;28;20235;-81
2021/11/21 00:35:24;;;;;;;11.00;7.60;;;;;16.10;101251.00;;;;5032058;28;20192;-81
2021/11/21 00:37:51;;;;;;;11.23;7.53;;;;;16.10;101244.00;;;;5029744;28;20215;-82
2021/11/21 00:40:19;;;;;;;10.65;7.88;;;;;16.10;101241.00;;;;5035262;28;20602;-82
2021/11/21 00:42:46;;;;;;;10.25;7.00;;;;;16.10;101237.00;;;;5031273;28;20187;-82
2021/11/21 00:45:13;;;;;;;14.07;8.00;;;;;16.10;101229.00;;;;5031228;28;20207;-82
2021/11/21 00:47:42;;;;;;;10.57;7.63;;;;;16.10;101232.00;;;;5035479;28;20224;-82
2021/11/21 00:50:12;;;;;;;9.73;7.30;;;;;16.10;101229.00;;;;5028237;28;20199;-81
2021/11/21 00:52:40;;;;;;;10.38;6.90;;;;;16.10;101227.00;;;;5028958;28;20223;-81
2021/11/21 00:55:12;;;;;;;11.43;6.97;;;;;16.10;101230.00;;;;5044627;28;20294;-81
2021/11/21 00:57:40;;;;;;;10.70;7.38;;;;;16.10;101224.00;;;;5044852;28;20278;-81
2021/11/21 01:00:10;;;;;;;12.20;7.50;;;;;16.10;101230.00;;;;5032186;28;20207;-81
2021/11/21 01:02:38;;;;;;;9.02;5.95;;;;;16.10;101225.00;;;;5037677;28;20192;-81
2021/11/21 01:05:09;;;;;;;10.45;5.85;;;;;16.10;101222.00;;;;5040731;28;20192;-81
2021/11/21 01:07:37;;;;;;;10.15;5.95;;;;;16.10;101226.00;;;;5046188;28;20231;-82
2021/11/21 01:10:06;;;;;;;9.50;6.28;;;;;16.10;101221.00;;;;5051369;28;20192;-81
2021/11/21 01:12:34;;;;;;;8.40;5.43;;;;;16.10;101222.00;;;;5042984;28;20202;-81
2021/11/21 01:15:01;;;;;;;8.82;5.72;;;;;16.10;101216.00;;;;5045201;28;20203;-82
2021/11/21 01:17:29;;;;;;;7.80;4.72;;;;;16.10;101218.00;;;;5050280;28;20199;-81
2021/11/21 01:19:59;;;;;;;8.00;5.72;;;;;16.10;101216.00;;;;5050670;28;20199;-82
2021/11/21 01:22:29;;;;;;;6.88;5.13;;;;;16.10;101211.00;;;;5040681;28;20296;-81
2021/11/21 01:24:57;;;;;;;8.05;4.80;;;;;16.10;101206.00;;;;5041519;28;20204;-81
2021/11/21 01:27:25;;;;;;;8.13;4.65;;;;;16.10;101200.00;;;;5032349;28;20228;-81
2021/11/21 01:29:53;;;;;;;7.05;4.63;;;;;16.10;101198.00;;;;5036993;28;20200;-82
2021/11/21 01:32:20;;;;;;;7.70;4.75;;;;;16.00;101185.00;;;;5032998;28;20192;-81
2021/11/21 01:34:47;;;;;;;6.95;4.55;;;;;16.00;101180.00;;;;5035887;28;20203;-81
2021/11/21 01:37:15;;;;;;;7.35;5.15;;;;;16.00;101174.00;;;;5033821;28;20212;-81
2021/11/21 01:39:43;;;;;;;8.73;5.20;;;;;16.00;101183.00;;;;5032742;28;20204;-81
2021/11/21 01:42:11;;;;;;;9.15;6.40;;;;;16.00;101178.00;;;;5049825;28;20207;-82
2021/11/21 01:44:38;;;;;;;8.60;6.07;;;;;16.00;101179.00;;;;5038300;28;20195;-81
2021/11/21 01:47:06;;;;;;;11.10;6.43;;;;;16.00;101179.00;;;;5051045;28;20220;-81
2021/11/21 01:49:34;;;;;;;9.93;6.80;;;;;16.00;101180.00;;;;5049627;28;20203;-82
2021/11/21 01:52:01;;;;;;;10.10;6.88;;;;;16.00;101172.00;;;;5048985;28;20231;-82
2021/11/21 01:54:29;;;;;;;9.85;6.35;;;;;16.00;101177.00;;;;5045188;28;20204;-82
2021/11/21 01:56:57;;;;;;;9.55;6.90;;;;;16.00;101167.00;;;;5048739;28;20199;-82
2021/11/21 01:59:25;;;;;;;10.93;7.28;;;;;16.00;101164.00;;;;5030486;28;20200;-82
2021/11/21 02:01:52;;;;;;;11.48;7.68;;;;;16.00;101171.00;;;;5039003;28;20201;-82
2021/11/21 02:04:19;;;;;;;11.23;7.80;;;;;16.00;101166.00;;;;5034943;28;20192;-81
2021/11/21 02:06:47;;;;;;;10.85;8.02;;;;;16.00;101164.00;;;;5049540;28;20220;-82
2021/11/21 02:09:15;;;;;;;10.77;7.70;;;;;16.00;101164.00;;;;5039977;28;20196;-81
2021/11/21 02:11:42;;;;;;;11.85;8.48;;;;;15.90;101155.00;;;;5030357;28;20200;-82
2021/11/21 02:14:11;;;;;;;9.73;7.28;;;;;15.90;101157.00;;;;5040962;28;20208;-82
2021/11/21 02:16:39;;;;;;;10.32;7.82;;;;;15.90;101147.00;;;;5030194;28;20211;-82
2021/11/21 02:19:06;;;;;;;11.15;8.20;;;;;15.90;101141.00;;;;5046459;28;20196;-81
2021/11/21 02:21:35;;;;;;;12.07;8.60;;;;;15.90;101134.00;;;;5035545;28;20568;-81
2021/11/21 02:24:02;;;;;;;11.38;8.27;;;;;15.90;101136.00;;;;5034121;28;20200;-81
2021/11/21 02:26:29;;;;;;;11.77;7.95;;;;;15.90;101128.00;;;;5047504;28;20219;-81
2021/11/21 02:28:57;;;;;;;11.88;7.68;;;;;15.90;101132.00;;;;5039553;28;20193;-81
2021/11/21 02:31:24;;;;;;;12.35;8.48;;;;;15.90;101126.00;;;;5045516;28;20207;-81
2021/11/21 02:33:52;;;;;;;12.95;8.02;;;;;15.90;101127.00;;;;5041909;28;20218;-81
2021/11/21 02:36:20;;;;;;;13.48;8.07;;;;;15.90;101117.00;;;;5046539;28;20227;-81
2021/11/21 02:38:49;;;;;;;10.70;7.95;;;;;15.90;101112.00;;;;5049117;28;20195;-81
2021/11/21 02:41:17;;;;;;;12.60;8.35;;;;;15.90;101104.00;;;;5029240;28;20197;-82
2021/11/21 02:43:46;;;;;;;12.38;8.38;;;;;15.90;101104.00;;;;5040085;28;20195;-82
2021/11/21 02:46:14;;;;;;;12.43;8.07;;;;;15.90;101114.00;;;;5048254;28;20223;-82
2021/11/21 02:48:42;;;;;;;11.35;7.72;;;;;15.80;101102.00;;;;5040199;28;20204;-81
2021/11/21 02:51:12;;;;;;;11.40;7.93;;;;;15.80;101096.00;;;;5029076;28;20200;-81
2021/11/21 02:53:41;;;;;;;10.88;7.57;;;;;15.80;101090.00;;;;5031314;28;20232;-81
2021/11/21 02:56:16;;;;;;;12.70;8.38;;;;;15.80;101088.00;;;;5031363;28;20204;-81
2021/11/21 02:58:44;;;;;;;11.27;7.55;;;;;15.80;101081.00;;;;5035543;28;20204;-81
2021/11/21 03:01:15;;;;;;;10.65;7.30;;;;;15.80;101076.00;;;;5039663;28;20653;-81
2021/11/21 03:03:42;;;;;;;13.07;9.10;;;;;15.80;101070.00;;;;5039343;28;20666;-82
2021/11/21 03:06:11;;;;;;;13.02;8.10;;;;;15.80;101075.00;;;;5037127;28;20204;-81
2021/11/21 03:08:39;;;;;;;15.25;8.75;;;;;15.80;101062.00;;;;5037675;28;20226;-82
2021/11/21 03:11:22;;;;;;;11.15;7.70;;;;;15.70;101060.00;;;;5048774;28;20203;-81
2021/11/21 03:13:49;;;;;;;13.93;8.18;;;;;15.80;101057.00;;;;5039089;28;20198;-81
2021/11/21 03:16:17;;;;;;;12.05;7.82;;;;;15.70;101053.00;;;;5039622;28;20195;-81
2021/11/21 03:18:44;;;;;;;11.45;7.45;;;;;15.70;101052.00;;;;5048447;28;20202;-82
2021/11/21 03:21:12;;;;;;;11.55;7.38;;;;;15.70;101053.00;;;;5039321;28;20219;-81
2021/11/21 03:23:39;;;;;;;13.43;8.50;;;;;15.70;101049.00;;;;5047119;28;20250;-82
2021/11/21 03:26:07;;;;;;;10.52;7.35;;;;;15.80;101047.00;;;;5035191;28;20223;-81
2021/11/21 03:28:35;;;;;;;10.82;7.65;;;;;15.70;101049.00;;;;5040714;28;20230;-82
2021/11/21 03:31:03;;;;;;;11.27;7.90;;;;;15.70;101044.00;;;;5047212;28;20461;-81
2021/11/21 03:33:31;;;;;;;11.85;7.60;;;;;15.80;101036.00;;;;5046592;28;20195;-82
2021/11/21 03:35:58;;;;;;;9.50;6.78;;;;;15.80;101035.00;;;;5040664;28;20204;-81
2021/11/21 03:38:26;;;;;;;11.27;7.68;;;;;15.80;101035.00;;;;5038574;28;20204;-81
2021/11/21 03:40:54;;;;;;;11.68;7.30;;;;;15.80;101034.00;;;;5039130;28;20254;-82
2021/11/21 03:43:21;;;;;;;13.20;8.07;;;;;15.80;101031.00;;;;5045769;28;20192;-82
2021/11/21 03:45:49;;;;;;;13.40;8.32;;;;;15.80;101033.00;;;;5038934;28;20207;-82
2021/11/21 03:48:17;;;;;;;9.93;6.97;;;;;15.80;101034.00;;;;5034528;28;20218;-82
2021/11/21 03:50:44;;;;;;;10.23;7.15;;;;;15.80;101043.00;;;;5041311;28;20195;-82
2021/11/21 03:53:11;;;;;;;10.60;7.20;;;;;15.80;101040.00;;;;5046209;28;20231;-82
2021/11/21 03:55:39;;;;;;;10.60;6.53;;;;;15.80;101046.00;;;;5036420;28;20214;-82
2021/11/21 03:58:06;;;;;;;9.95;6.90;;;;;15.80;101041.00;;;;5030750;28;20211;-81
2021/11/21 04:00:34;;;;;;;10.77;7.18;;;;;15.80;101053.00;;;;5040001;28;20192;-82
2021/11/21 04:03:05;;;;;;;10.68;7.20;;;;;15.80;101043.00;;;;5046089;28;20686;-82
2021/11/21 04:05:33;;;;;;;10.20;6.82;;;;;15.80;101044.00;;;;5038298;28;20223;-81
2021/11/21 04:08:00;;;;;;;10.52;6.72;;;;;15.80;101045.00;;;;5028417;28;20603;-81
2021/11/21 04:10:27;;;;;;;9.45;6.60;;;;;15.80;101055.00;;;;5028260;28;20225;-82
2021/11/21 04:12:54;;;;;;;8.02;6.10;;;;;15.80;101050.00;;;;5038880;28;20203;-82
2021/11/21 04:15:22;;;;;;;7.75;5.45;;;;;15.80;101053.00;;;;5038818;28;20205;-82
2021/11/21 04:17:49;;;;;;;8.82;5.63;;;;;15.80;101049.00;;;;5040198;28;20188;-81
2021/11/21 04:20:18;;;;;;;7.55;4.60;;;;;15.80;101052.00;;;;5045726;28;20208;-81
2021/11/21 04:22:45;;;;;;;7.28;4.80;;;;;15.80;101049.00;;;;5045355;28;20199;-81
2021/11/21 04:25:13;;;;;;;6.13;4.53;;;;;15.80;101043.00;;;;5030120;28;20196;-81
2021/11/21 04:27:42;;;;;;;6.72;5.15;;;;;15.80;101050.00;;;;5038095;28;20230;-82
2021/11/21 04:30:11;;;;;;;6.72;5.07;;;;;15.80;101052.00;;;;5037160;28;20995;-81
2021/11/21 04:32:39;;;;;;;6.55;4.72;;;;;15.80;101044.00;;;;5036055;28;20201;-82
2021/11/21 04:35:07;;;;;;;7.57;4.90;;;;;15.90;101041.00;;;;5038386;28;20600;-81
2021/11/21 04:37:36;;;;;;;5.88;4.55;;;;;15.90;101040.00;;;;5043759;28;20195;-82
2021/11/21 04:40:04;;;;;;;5.72;3.95;;;;;15.90;101042.00;;;;5040252;28;20196;-81
2021/11/21 04:42:32;;;;;;;6.53;4.45;;;;;15.90;101046.00;;;;5035366;28;20207;-82
2021/11/21 04:44:59;;;;;;;7.13;3.80;;;;;16.00;101050.00;;;;5040511;28;20218;-82
2021/11/21 04:47:26;;;;;;;4.43;3.33;;;;;16.00;101042.00;;;;5037143;28;20230;-82
2021/11/21 04:49:54;;;;;;;5.28;4.00;;;;;16.00;101035.00;;;;5033555;28;20197;-82
2021/11/21 04:52:21;;;;;;;3.92;2.92;;;;;16.00;101038.00;;;;5047676;28;20701;-82
2021/11/21 04:54:50;;;;;;;4.55;3.10;;;;;16.00;101032.00;;;;5047769;28;20207;-82
2021/11/21 04:57:17;;;;;;;3.15;2.22;;;;;16.00;101034.00;;;;5036248;28;20199;-82
2021/11/21 04:59:45;;;;;;;3.05;2.40;;;;;16.00;101029.00;;;;5043958;28;20222;-82
2021/11/21 05:02:12;;;;;;;4.53;2.72;;;;;16.00;101032.00;;;;5044209;28;20204;-82
2021/11/21 05:04:40;;;;;;;3.75;2.45;;;;;16.00;101026.00;;;;5045831;28;20207;-82
2021/11/21 05:07:07;;;;;;;2.47;1.77;;;;;16.00;101021.00;;;;5040066;28;20564;-81
2021/11/21 05:09:35;;;;;;;3.85;2.10;;;;;16.00;101022.00;;;;5037809;28;20284;-81
2021/11/21 05:12:03;;;;;;;2.25;1.60;;;;;16.00;101028.00;;;;5047796;28;20322;-82
2021/11/21 05:14:31;;;;;;;2.67;2.20;;;;;16.00;101026.00;;;;5032204;28;20207;-81
2021/11/21 05:16:59;;;;;;;2.72;1.73;;;;;16.10;101035.00;;;;5044520;28;20586;-81
2021/11/21 05:19:27;;;;;;;3.38;1.35;;;;;16.10;101022.00;;;;5042314;28;20677;-81
2021/11/21 05:21:54;;;;;;;3.42;2.03;;;;;16.10;101028.00;;;;5034242;28;20203;-81
2021/11/21 05:24:24;;;;;;;3.35;1.83;;;;;16.10;101027.00;;;;5037022;28;20204;-81
2021/11/21 05:26:51;;;;;;;2.60;1.83;;;;;16.10;101028.00;;;;5046176;28;20208;-81
2021/11/21 05:29:20;;;;;;;2.70;1.88;;;;;16.10;101036.00;;;;5046604;28;20305;-81
2021/11/21 05:31:47;;;;;;;2.85;2.05;;;;;16.10;101029.00;;;;5048437;28;20203;-82
2021/11/21 05:34:15;;;;;;;2.50;2.00;;;;;16.10;101040.00;;;;5033937;28;20196;-81
2021/11/21 05:36:44;;;;;;;3.00;1.65;;;;;16.10;101035.00;;;;5037229;28;20752;-82
2021/11/21 05:39:11;;;;;;;2.75;1.50;;;;;16.10;101034.00;;;;5033102;28;20334;-81
2021/11/21 05:41:38;;;;;;;4.57;2.15;;;;;16.10;101035.00;;;;5040662;28;20192;-82
2021/11/21 05:44:06;;;;;;;3.22;1.60;;;;;16.10;101031.00;;;;5032854;28;20196;-81
2021/11/21 05:46:35;;;;;;;2.85;1.48;;;;;16.10;101029.00;;;;5047472;28;20216;-82
2021/11/21 05:49:02;;;;;;;2.65;1.50;;;;;16.20;101029.00;;;;5036129;28;20223;-82
2021/11/21 05:51:30;;;;;;;1.75;1.20;;;;;16.10;101029.00;;;;5041048;28;20715;-81
2021/11/21 05:53:57;;;;;;;1.40;1.02;;;;;16.10;101035.00;;;;5041855;28;20200;-82
2021/11/21 05:56:25;;;;;;;2.00;1.20;;;;;16.10;101025.00;;;;5037724;28;21172;-82
2021/11/21 05:58:53;;;;;;;2.33;1.52;;;;;16.10;101032.00;;;;5041511;28;20200;-82
2021/11/21 06:01:21;;;;;;;2.40;1.70;;;;;16.10;101026.00;;;;5031984;28;20684;-82
2021/11/21 06:03:51;;;;;;;3.33;1.27;;;;;16.10;101022.00;;;;5031356;28;20203;-82
2021/11/21 06:06:18;;;;;;;4.22;1.30;;;;;16.10;101026.00;;;;5041412;28;20204;-82
2021/11/21 06:08:46;;;;;;;1.67;1.20;;;;;16.10;101032.00;;;;5039004;28;20720;-82
2021/11/21 06:11:14;;;;;;;1.25;0.98;;;;;16.10;101038.00;;;;5039058;28;20211;-81
2021/11/21 06:13:42;;;;;;;2.17;1.42;;;;;16.10;101037.00;;;;5038588;28;20227;-82
2021/11/21 06:16:09;;;;;;;2.45;1.13;;;;;16.10;101036.00;;;;5039463;28;20710;-82
2021/11/21 06:18:36;;;;;;;1.75;1.15;;;;;16.10;101033.00;;;;5036008;28;20192;-81
2021/11/21 06:21:05;;;;;;;3.10;0.95;;;;;16.10;101038.00;;;;5039022;28;20203;-81
2021/11/21 06:23:34;;;;;;;5.15;1.00;;;;;16.10;101045.00;;;;5036201;28;20219;-81
2021/11/21 06:26:02;;;;;;;2.63;1.05;;;;;16.10;101043.00;;;;5036533;28;20294;-82
2021/11/21 06:28:29;;;;;;;1.88;1.10;;;;;16.10;101039.00;;;;5038581;28;20234;-81
2021/11/21 06:30:56;;;;;;;2.20;1.45;;;;;16.10;101037.00;;;;5039753;28;20199;-80
2021/11/21 06:33:24;;;;;;;1.98;1.02;;;;;16.10;101036.00;;;;5038312;28;20196;-81
2021/11/21 06:35:52;;;;;;;2.33;1.63;;;;;16.10;101036.00;;;;5033343;28;20216;-81
2021/11/21 06:38:21;;;;;;;2.63;1.20;;;;;16.10;101037.00;;;;5036311;28;20274;-81
2021/11/21 06:40:48;;;;;;;1.15;0.90;;;;;16.10;101043.00;;;;5039095;28;20622;-81
2021/11/21 06:43:16;;;;;;;3.30;0.98;;;;;16.10;101043.00;;;;5039894;28;20191;-81
2021/11/21 06:45:43;;;;;;;2.20;0.60;;;;;16.10;101039.00;;;;5040130;28;20203;-81
2021/11/21 06:48:12;;;;;;;3.80;0.85;;;;;16.00;101037.00;;;;5036674;28;20224;-81
2021/11/21 06:50:39;;;;;;;1.33;0.70;;;;;16.10;101036.00;;;;5037016;28;20204;-83
2021/11/21 06:53:07;;;;;;;1.33;0.68;;;;;16.00;101040.00;;;;5036461;28;20235;-82
2021/11/21 06:55:35;;;;;;;1.45;0.93;;;;;16.00;101036.00;;;;5035858;28;20193;-80
2021/11/21 06:58:03;;;;;;;1.42;0.75;;;;;16.00;101035.00;;;;5038756;28;20284;-81
2021/11/21 07:00:30;;;;;;;2.85;0.70;;;;;16.00;101039.00;;;;5036095;28;20204;-81
2021/11/21 07:02:58;;;;;;;1.60;0.60;;;;;16.00;101041.00;;;;5035017;28;20553;-80
2021/11/21 07:05:26;;;;;;;2.03;0.70;;;;;16.00;101037.00;;;;5040538;28;20215;-80
2021/11/21 07:07:53;;;;;;;1.55;0.70;;;;;16.00;101043.00;;;;5037951;28;20211;-80
2021/11/21 07:10:20;;;;;;;0.70;0.30;;;;;16.00;101045.00;;;;5034618;28;20196;-80
2021/11/21 07:12:49;;;;;;;3.83;1.10;;;;;15.90;101042.00;;;;5039005;28;20447;-80
2021/11/21 07:15:17;;;;;;;1.30;0.63;;;;;16.00;101050.00;;;;5036530;28;20199;-80
2021/11/21 07:17:47;;;;;;;3.47;0.60;;;;;16.00;101051.00;;;;5035851;28;20207;-80
2021/11/21 07:20:22;;;;;;;2.88;0.40;;;;;15.90;101053.00;;;;5036682;28;20196;-78
2021/11/21 07:22:52;;;;;;;1.58;0.40;;;;;15.90;101052.00;;;;5039976;28;20688;-78
2021/11/21 07:25:21;;;;;;;1.40;0.20;;;;;15.90;101061.00;;;;5043468;28;20297;-78
2021/11/21 07:27:50;;;;;;;2.00;0.40;;;;;15.90;101062.00;;;;5037712;28;20221;-80
2021/11/21 07:30:20;;;;;;;0.95;0.50;;;;;15.90;101066.00;;;;5037422;28;20215;-79
2021/11/21 07:32:49;;;;;;;2.35;0.80;;;;;15.90;101066.00;;;;5031278;28;20210;-79
2021/11/21 07:35:18;;;;;;;2.30;0.52;;;;;15.90;101072.00;;;;5033846;28;20219;-79
2021/11/21 07:37:46;;;;;;;2.35;0.73;;;;;15.90;101067.00;;;;5041259;28;20193;-79
2021/11/21 07:40:14;;;;;;;1.48;0.25;;;;;15.90;101075.00;;;;5033364;28;20199;-79
2021/11/21 07:42:43;;;;;;;3.95;0.45;;;;;15.90;101068.00;;;;5038705;28;20258;-79
2021/11/21 07:45:13;;;;;;;1.73;0.30;;;;;15.90;101074.00;;;;5031051;28;20579;-79
2021/11/21 07:47:42;;;;;;;1.50;0.25;;;;;15.90;101073.00;;;;5036028;28;20221;-79
2021/11/21 07:50:10;;;;;;;1.65;0.32;;;;;15.90;101082.00;;;;5034581;28;20242;-78
2021/11/21 07:52:37;;;;;;;1.40;0.40;;;;;15.80;101075.00;;;;5036310;28;20231;-79
2021/11/21 07:55:05;;;;;;;3.85;0.85;;;;;15.80;101080.00;;;;5031600;28;20220;-78
2021/11/21 07:57:33;;;;;;;0.98;0.30;;;;;15.80;101083.00;;;;5040973;28;20564;-79
2021/11/21 08:00:00;;;;;;;1.92;0.40;;;;;15.80;101093.00;;;;5030687;28;20694;-78
2021/11/21 08:02:38;;;;;;;0.82;0.35;;;;;15.70;101087.00;;;;5034497;28;20204;-79
2021/11/21 08:05:06;;;;;;;1.77;0.52;;;;;15.80;101084.00;;;;5034286;28;20276;-79
2021/11/21 08:07:33;;;;;;;1.92;0.20;;;;;15.80;101089.00;;;;5038568;28;20662;-79
2021/11/21 08:10:02;;;;;;;1.35;0.43;;;;;15.70;101085.00;;;;5035078;28;20227;-78
2021/11/21 08:12:29;;;;;;;3.05;0.55;;;;;15.70;101086.00;;;;5039346;28;20238;-78
2021/11/21 08:14:56;;;;;;;0.85;0.28;;;;;15.70;101101.00;;;;5037185;28;20191;-78
2021/11/21 08:17:24;;;;;;;3.85;0.40;;;;;15.70;101101.00;;;;5033128;28;20200;-78
2021/11/21 08:19:53;;;;;;;2.92;0.60;;;;;15.70;101105.00;;;;5034615;28;20207;-78
2021/11/21 08:22:20;;;;;;;1.75;0.40;;;;;15.70;101110.00;;;;5028735;28;20192;-78
2021/11/21 08:24:48;;;;;;;3.25;0.80;;;;;15.70;101115.00;;;;5034407;28;20735;-78
2021/11/21 08:27:15;;;;;;;1.02;0.17;;;;;15.70;101116.00;;;;5042831;28;20208;-78
2021/11/21 08:29:43;;;;;;;1.33;0.30;;;;;15.70;101112.00;;;;5030842;28;20347;-78
2021/11/21 08:32:10;;;;;;;3.90;0.40;;;;;15.70;101110.00;;;;5036195;28;20192;-79
2021/11/21 08:34:38;;;;;;;2.10;0.35;;;;;15.60;101119.00;;;;5034201;28;20192;-78
2021/11/21 08:37:06;;;;;;;3.15;0.35;;;;;15.60;101120.00;;;;5033877;28;20196;-78
2021/11/21 08:39:34;;;;;;;2.10;0.40;;;;;15.60;101122.00;;;;5042162;28;20196;-78
2021/11/21 08:42:01;;;;;;;1.30;0.20;;;;;15.60;101116.00;;;;5039082;28;20282;-78
2021/11/21 08:44:28;;;;;;;2.85;0.20;;;;;15.60;101114.00;;;;5031231;28;21009;-78
2021/11/21 08:46:55;;;;;;;4.15;0.30;;;;;15.60;101113.00;;;;5038183;28;20184;-78
2021/11/21 08:49:23;;;;;;;1.05;0.30;;;;;15.60;101118.00;;;;5028877;28;20220;-78
2021/11/21 08:51:50;;;;;;;0.60;0.10;;;;;15.50;101124.00;;;;5034381;28;20240;-77
2021/11/21 08:54:19;;;;;;;2.75;0.65;;;;;15.50;101118.00;;;;5036193;28;20188;-78
2021/11/21 08:56:47;;;;;;;0.75;0.38;;;;;15.50;101126.00;;;;5032646;28;20682;-77
2021/11/21 08:59:15;;;;;;;2.28;0.50;;;;;15.50;101121.00;;;;5033899;28;20211;-77
2021/11/21 09:01:43;;;;;;;1.60;0.47;;;;;15.50;101125.00;;;;5028225;28;20196;-77
2021/11/21 09:04:12;;;;;;;1.17;0.55;;;;;15.40;101127.00;;;;5034399;28;20193;-77
2021/11/21 09:06:39;;;;;;;4.35;0.50;;;;;15.40;101126.00;;;;5027422;28;20219;-77
2021/11/21 09:09:07;;;;;;;0.85;0.52;;;;;15.40;101131.00;;;;5030006;28;20227;-78
2021/11/21 09:11:36;;;;;;;3.00;0.57;;;;;15.30;101132.00;;;;5028545;28;20203;-77
2021/11/21 09:14:03;;;;;;;3.13;0.40;;;;;15.30;101127.00;;;;5029831;28;20327;-78
2021/11/21 09:16:31;;;;;;;0.90;0.20;;;;;15.30;101127.00;;;;5032931;28;20215;-79
2021/11/21 09:18:59;;;;;;;3.17;0.60;;;;;15.30;101134.00;;;;5035324;28;20203;-78
2021/11/21 09:21:26;;;;;;;0.93;0.32;;;;;15.30;101138.00;;;;5043094;28;20199;-78
2021/11/21 09:23:53;;;;;;;0.65;0.30;;;;;15.20;101132.00;;;;5042884;28;20549;-78
2021/11/21 09:26:21;;;;;;;4.40;0.75;;;;;15.20;101138.00;;;;5037049;28;20223;-78
2021/11/21 09:28:50;;;;;;;5.55;1.05;;;;;15.20;101143.00;;;;5038968;28;20227;-78
2021/11/21 09:31:17;;;;;;;1.75;0.45;;;;;15.10;101137.00;;;;5039348;28;20588;-78
2021/11/21 09:33:44;;;;;;;0.95;0.20;;;;;15.10;101129.00;;;;5038628;28;20215;-79
2021/11/21 09:36:12;;;;;;;3.38;0.50;;;;;15.10;101132.00;;;;5039416;28;20200;-78
2021/11/21 09:38:39;;;;;;;1.33;0.63;;;;;15.10;101136.00;;;;5036161;28;20203;-80
2021/11/21 09:41:07;;;;;;;2.00;0.57;;;;;15.10;101137.00;;;;5036411;28;20203;-79
2021/11/21 09:43:34;;;;;;;1.10;0.30;;;;;15.10;101129.00;;;;5045522;28;20206;-79
2021/11/21 09:46:03;;;;;;;2.85;0.40;;;;;15.00;101127.00;;;;5044860;28;20183;-78
2021/11/21 09:48:31;;;;;;;2.92;0.68;;;;;15.00;101123.00;;;;5041315;28;20211;-79
2021/11/21 09:50:59;;;;;;;2.22;0.82;;;;;15.00;101141.00;;;;5032741;28;20196;-79
2021/11/21 09:53:27;;;;;;;3.33;0.40;;;;;15.00;101134.00;;;;5038631;28;20224;-78
2021/11/21 09:55:55;;;;;;;3.95;0.45;;;;;15.00;101132.00;;;;5032564;28;20215;-79
2021/11/21 09:58:23;;;;;;;2.28;0.60;;;;;15.00;101134.00;;;;5035983;28;20206;-79
2021/11/21 10:00:50;;;;;;;2.75;0.63;;;;;15.00;101129.00;;;;5038130;28;20199;-78
2021/11/21 10:03:19;;;;;;;1.20;0.47;;;;;15.00;101125.00;;;;5035094;28;20199;-79
2021/11/21 10:05:50;;;;;;;2.05;0.35;;;;;15.10;101126.00;;;;5039926;28;20991;-79
2021/11/21 10:08:18;;;;;;;2.47;0.63;;;;;15.10;101127.00;;;;5032937;28;20200;-78
2021/11/21 10:10:48;;;;;;;2.10;0.40;;;;;15.10;101127.00;;;;5037724;28;20220;-78
2021/11/21 10:13:35;;;;;;;1.02;0.40;;;;;15.00;101132.00;;;;5031806;28;20199;-79
2021/11/21 10:16:23;;;;;;;1.48;0.20;;;;;15.10;101120.00;;;;5033080;28;21023;-79
2021/11/21 10:18:54;;;;;;;0.45;0.28;;;;;15.20;101124.00;;;;5033535;28;20200;-79
2021/11/21 10:21:23;;;;;;;4.18;0.63;;;;;15.20;101123.00;;;;5036741;28;20215;-79
2021/11/21 10:24:05;;;;;;;2.25;0.77;;;;;15.30;101128.00;;;;5039174;28;20192;-79
2021/11/21 10:26:33;;;;;;;1.00;0.40;;;;;15.30;101129.00;;;;5038942;28;20835;-78
2021/11/21 10:29:00;;;;;;;4.07;0.50;;;;;15.40;101133.00;;;;5041007;28;20295;-79
2021/11/21 10:31:31;;;;;;;3.25;0.50;;;;;15.40;101126.00;;;;5037982;28;20196;-79
2021/11/21 10:34:00;;;;;;;1.90;0.45;;;;;15.40;101123.00;;;;5040994;28;20199;-78
2021/11/21 10:36:30;;;;;;;5.50;0.88;;;;;15.50;101118.00;;;;5037669;28;20501;-79
2021/11/21 10:38:59;;;;;;;3.22;0.30;;;;;15.50;101118.00;;;;5036708;28;20197;-79
2021/11/21 10:41:29;;;;;;;1.35;0.32;;;;;15.50;101115.00;;;;5035993;28;20577;-79
2021/11/21 10:44:00;;;;;;;4.85;0.80;;;;;15.60;101111.00;;;;5040120;28;20200;-79
2021/11/21 10:46:31;;;;;;;1.40;0.57;;;;;15.60;101111.00;;;;5035994;28;20941;-78
2021/11/21 10:52:02;;;;;;;3.70;0.45;;;;;15.60;101115.00;;;;5093386;27;1243710;-78
2021/11/21 10:54:32;;;;;;;1.45;0.25;;;;;15.70;101118.00;;;;5113661;28;20198;-79
2021/11/21 10:57:01;;;;;;;2.70;0.30;;;;;15.70;101116.00;;;;5116933;28;20241;-79
2021/11/21 10:59:47;;;;;;;3.35;0.47;;;;;15.70;101118.00;;;;5117857;28;20211;-79
2021/11/21 11:02:18;;;;;;;4.18;0.60;;;;;15.80;101115.00;;;;5120713;27;20211;-79
2021/11/21 11:05:06;;;;;;;2.63;0.57;;;;;15.80;101109.00;;;;5119532;27;20200;-79
2021/11/21 11:07:39;;;;;;;1.63;0.40;;;;;15.80;101111.00;;;;5119065;28;20193;-79
2021/11/21 11:10:09;;;;;;;2.45;0.75;;;;;15.90;101114.00;;;;5113923;28;20245;-78
2021/11/21 11:12:37;;;;;;;0.80;0.22;;;;;15.90;101118.00;;;;5118030;28;20197;-79
2021/11/21 11:15:05;;;;;;;2.58;0.40;;;;;15.90;101113.00;;;;5116549;28;20204;-79
2021/11/21 11:17:33;;;;;;;2.10;0.52;;;;;16.00;101114.00;;;;5126679;27;20194;-79
2021/11/21 11:20:01;;;;;;;2.85;1.00;;;;;16.00;101117.00;;;;5126018;28;20239;-79
2021/11/21 11:22:29;;;;;;;1.65;0.75;;;;;16.00;101110.00;;;;5117644;28;20241;-78
2021/11/21 11:25:01;;;;;;;1.67;0.55;;;;;16.10;101116.00;;;;5126530;27;20193;-78
2021/11/21 11:27:36;;;;;;;1.67;0.38;;;;;16.00;101117.00;;;;5116408;28;20216;-79
2021/11/21 11:30:06;;;;;;;1.40;0.65;;;;;16.10;101110.00;;;;5115499;27;20212;-79
2021/11/21 11:32:36;;;;;;;4.38;0.93;;;;;16.10;101113.00;;;;5110214;28;20190;-80
2021/11/21 11:35:06;;;;;;;1.38;0.40;;;;;16.20;101118.00;;;;5115387;28;20204;-81
2021/11/21 11:37:38;;;;;;;0.40;0.10;;;;;16.20;101113.00;;;;5102218;27;20186;-79
2021/11/21 11:40:23;;;;;;;0.68;0.15;;;;;16.20;101116.00;;;;5111761;28;20215;-79
2021/11/21 11:42:50;;;;;;;3.47;0.47;;;;;16.30;101117.00;;;;5107104;28;20208;-79
2021/11/21 11:45:18;;;;;;;3.28;0.50;;;;;16.30;101120.00;;;;5108964;27;20190;-78
2021/11/21 11:47:46;;;;;;;2.50;0.30;;;;;16.40;101108.00;;;;5113425;27;20201;-79
2021/11/21 11:50:44;;;;;;;1.35;0.40;;;;;16.30;101113.00;;;;5110272;27;20336;-79
2021/11/21 11:53:11;;;;;;;2.00;0.57;;;;;16.50;101114.00;;;;5111706;27;20190;-80
2021/11/21 11:56:14;;;;;;;3.15;0.45;;;;;16.40;101117.00;;;;5112094;28;20194;-80
2021/11/21 11:58:46;;;;;;;3.40;0.38;;;;;16.60;101114.00;;;;5115248;27;20211;-79
2021/11/21 12:01:14;;;;;;;1.50;0.10;;;;;16.60;101111.00;;;;5111873;27;20195;-80
2021/11/21 12:03:42;;;;;;;3.05;0.57;;;;;16.70;101118.00;;;;5100053;27;20205;-79
2021/11/21 12:06:10;;;;;;;2.13;0.68;;;;;16.70;101118.00;;;;5095016;28;20202;-79
2021/11/21 12:08:42;;;;;;;1.38;0.35;;;;;16.80;101116.00;;;;5091405;28;20260;-78
2021/11/21 12:11:11;;;;;;;0.90;0.10;;;;;16.80;101114.00;;;;5095250;28;20714;-78
2021/11/21 12:13:38;;;;;;;0.70;0.32;;;;;16.90;101110.00;;;;5098219;28;20666;-78
2021/11/21 12:16:15;;;;;;;1.85;0.35;;;;;16.90;101113.00;;;;5103272;28;20198;-79